Flight Track Log - Related Links

Times and Time Zones

All times are in EDT time to prevent confusion due to time zone crossing. See the XOJ793 flight status page for this flight to view local times or setup timezone preferences in your user account.

Time Position Orientation Groundspeed Altitude Reporting Facility
EDT Latitude Longitude Course Direction KTS MPH feet Rate Location/Type
Thu 03:54:14 PM 29.6314 -95.2919 182° South 167 192 1,100  Level Houston Center
Thu 03:54:47 PM 29.6144 -95.2928 182° South 172 198 1,900 2,182 Climbing Houston Center
Thu 03:55:09 PM 29.5994 -95.2622 119° Southeast 220 253 3,100 2,613 Climbing Houston Center
Thu 03:55:49 PM 29.5817 -95.2189 115° Southeast 231 266 4,600 2,505 Climbing Houston Center
Thu 03:56:52 PM 29.5386 -95.1706 136° Southeast 229 264 7,400 2,592 Climbing Houston Center
Thu 03:57:54 PM 29.4819 -95.1353 152° Southeast 236 272 10,000 2,371 Climbing Houston Center
Thu 03:58:56 PM 29.4292 -95.0700 133° Southeast 253 291 12,300 2,064 Climbing Houston Center
Thu 03:59:59 PM 29.3558 -95.0306 155° Southeast 277 319 14,300 1,824 Climbing Houston Center
Thu 04:01:01 PM 29.2758 -95.0158 171° South 286 329 16,100 1,488 Climbing Houston Center
Thu 04:02:04 PM 29.1897 -94.9994 171° South 307 353 17,400 1,306 Climbing Houston Center
Thu 04:03:05 PM 29.0936 -94.9819 171° South 342 394 18,800 1,645 Climbing Houston Center
Thu 04:04:08 PM 29.0106 -94.9308 152° Southeast 364 419 20,800 2,016 Climbing Houston Center
Thu 04:05:10 PM 29.0036 -94.8169 94° East 360 414 23,000 2,177 Climbing Houston Center
Thu 04:06:12 PM 28.9964 -94.6792 93° East 365 420 25,300 1,984 Climbing Houston Center
Thu 04:07:14 PM 29.0081 -94.5669 83° East 371 427 27,100 1,500 Climbing Houston Center
Thu 04:08:16 PM 29.0778 -94.4833 46° Northeast 369 425 28,400 1,056 Climbing Houston Center
Thu 04:09:19 PM 29.1617 -94.4039 40° Northeast 392 451 29,300 912 Climbing Houston Center
Thu 04:10:21 PM 29.2481 -94.3189 41° Northeast 409 471 30,300 1,016 Climbing Houston Center
Thu 04:11:23 PM 29.3572 -94.2108 41° Northeast 434 499 31,400 1,065 Climbing Houston Center
Thu 04:12:25 PM 29.4425 -94.1258 41° Northeast 439 505 32,500 1,210 Climbing Houston Center
Thu 04:13:27 PM 29.5339 -94.0325 42° Northeast 439 505 33,900 1,680 Climbing Houston Center
Thu 04:14:30 PM 29.6433 -93.9236 41° Northeast 437 503 36,000 2,016 Climbing Houston Center
Thu 04:15:32 PM 29.7311 -93.8356 41° Northeast 420 483 38,100 1,500 Climbing Houston Center
Thu 04:16:34 PM 29.8158 -93.7486 42° Northeast 409 471 39,100 774 Climbing Houston Center
Thu 04:17:36 PM 29.9056 -93.6581 41° Northeast 424 488 39,700 528 Climbing Houston Center
Thu 04:18:39 PM 29.9978 -93.5636 42° Northeast 443 510 40,200 576 Climbing Houston Center
Thu 04:19:41 PM 30.1114 -93.4469 42° Northeast 459 528 40,900 629 Climbing Houston Center
Thu 04:20:43 PM 30.2067 -93.3467 42° Northeast 468 539 41,500 532 Climbing Houston Center
Thu 04:21:45 PM 30.3053 -93.2478 41° Northeast 475 547 42,000 532 Climbing Houston Center
Thu 04:22:47 PM 30.4042 -93.1453 42° Northeast 477 549 42,600 576 Climbing Houston Center
Thu 04:23:50 PM 30.5239 -93.0236 41° Northeast 478 550 43,200 576 Climbing Houston Center
Thu 04:24:52 PM 30.6233 -92.9203 42° Northeast 479 551 43,800 532 Climbing Houston Center
Thu 04:25:54 PM 30.7222 -92.8194 41° Northeast 478 550 44,300 532 Climbing Houston Center
Thu 04:26:56 PM 30.8203 -92.7167 42° Northeast 468 539 44,900 339 Climbing Houston Center
Thu 04:27:58 PM 30.9156 -92.6167 42° Northeast 467 537 45,000 48 Climbing Houston Center
Thu 04:29:01 PM 31.0300 -92.4953 42° Northeast 467 537 45,000  Level Houston Center
Thu 04:30:03 PM 31.1283 -92.3925 42° Northeast 471 542 45,000  Level Houston Center
Thu 04:31:05 PM 31.2275 -92.2883 42° Northeast 477 549 45,000  Level Houston Center
Thu 04:32:07 PM 31.3189 -92.1744 47° Northeast 481 554 45,000  Level Houston Center
Thu 04:33:09 PM 31.4147 -92.0306 52° Northeast 484 557 45,000  Level Houston Center
Thu 04:34:12 PM 31.4989 -91.9083 51° Northeast 484 557 45,000  Level Houston Center
Thu 04:35:14 PM 31.5819 -91.7831 52° Northeast 485 558 45,000  Level Houston Center
Thu 04:36:16 PM 31.6661 -91.6583 52° Northeast 486 559 45,000  Level Houston Center
Thu 04:37:18 PM 31.7508 -91.5328 52° Northeast 488 562 45,000  Level Houston Center
Thu 04:38:20 PM 31.8514 -91.3803 52° Northeast 493 567 45,000  Level Houston Center
Thu 04:39:23 PM 31.9367 -91.2519 52° Northeast 494 568 45,000  Level Houston Center
Thu 04:40:25 PM 32.0206 -91.1236 52° Northeast 494 568 45,000  Level Houston Center
Thu 04:41:27 PM 32.1064 -90.9939 52° Northeast 499 574 45,000  Level Houston Center
Thu 04:42:29 PM 32.1911 -90.8650 52° Northeast 499 574 45,000  Level Houston Center
Thu 04:43:31 PM 32.2861 -90.7197 52° Northeast 499 574 45,000  Level Houston Center
Thu 04:44:34 PM 32.3706 -90.5897 52° Northeast 499 574 45,000  Level Houston Center
Thu 04:45:36 PM 32.4553 -90.4603 52° Northeast 498 573 45,000  Level Houston Center
Thu 04:46:38 PM 32.5381 -90.3306 53° Northeast 496 571 45,000  Level Houston Center
Thu 04:47:40 PM 32.6383 -90.1767 52° Northeast 493 567 45,000  Level Houston Center
Thu 04:48:42 PM 32.7222 -90.0444 53° Northeast 495 570 45,000  Level Houston Center
Thu 04:49:45 PM 32.8044 -89.9150 53° Northeast 494 568 45,000  Level Houston Center
Thu 04:50:47 PM 32.8975 -89.7681 53° Northeast 493 567 45,000  Level Houston Center
Thu 04:52:02 PM 32.9958 -89.6128 53° Northeast 502 578 45,000  Level Memphis Center
Thu 04:53:04 PM 33.0775 -89.4861 52° Northeast 493 567 45,000  Level Memphis Center
Thu 04:54:06 PM 33.1592 -89.3564 53° Northeast 492 566 45,000  Level Memphis Center
Thu 04:55:08 PM 33.2400 -89.2256 54° Northeast 492 566 45,000  Level Memphis Center
Thu 04:56:10 PM 33.3392 -89.0703 53° Northeast 493 567 45,000  Level Memphis Center
Thu 04:57:12 PM 33.4206 -88.9383 54° Northeast 493 567 45,000  Level Memphis Center
Thu 04:58:14 PM 33.5022 -88.8069 53° Northeast 493 567 45,000  Level Memphis Center
Thu 04:59:16 PM 33.5917 -88.6617 54° Northeast 493 567 45,000  Level Memphis Center
Thu 05:00:19 PM 33.6728 -88.5300 53° Northeast 493 567 45,000 -480 Level Memphis Center
Thu 05:01:21 PM 33.7564 -88.3956 53° Northeast 497 572 44,000 -968 Descending Memphis Center
Thu 05:02:23 PM 33.8397 -88.2572 54° Northeast 508 585 43,000 -1,016 Descending Memphis Center
Thu 05:03:25 PM 33.9436 -88.0864 54° Northeast 523 602 41,900 -968 Descending Memphis Center
Thu 05:04:27 PM 34.0317 -87.9411 54° Northeast 534 615 41,000 -435 Descending Memphis Center
Thu 05:05:29 PM 34.1136 -87.8053 54° Northeast 534 615 41,000  Level Memphis Center
Thu 05:06:32 PM 34.2000 -87.6606 54° Northeast 534 615 41,000  Level Memphis Center
Thu 05:07:34 PM 34.3044 -87.4847 54° Northeast 535 616 41,000  Level Memphis Center
Thu 05:08:36 PM 34.3936 -87.3392 53° Northeast 538 619 41,000  Level Memphis Center
Thu 05:09:38 PM 34.4789 -87.1933 55° Northeast 538 619 41,000  Level Memphis Center
Thu 05:10:40 PM 34.5658 -87.0467 54° Northeast 538 619 41,000  Level Memphis Center
Thu 05:11:42 PM 34.6522 -86.8983 55° Northeast 538 619 41,000  Level Memphis Center
Thu 05:12:44 PM 34.7578 -86.7197 54° Northeast 539 620 41,000  Level Memphis Center
Thu 05:13:46 PM 34.8442 -86.5708 55° Northeast 541 623 41,000  Level Memphis Center
Thu 05:14:48 PM 34.9322 -86.4219 54° Northeast 541 623 41,000  Level Memphis Center
Thu 05:15:50 PM 35.0192 -86.2708 55° Northeast 542 624 41,000  Level Memphis Center
Thu 05:16:53 PM 35.1092 -86.1144 55° Northeast 543 625 41,000  Level Memphis Center
Thu 05:17:55 PM 35.1958 -85.9622 55° Northeast 543 625 41,000  Level Memphis Center
Thu 05:18:57 PM 35.2842 -85.8097 55° Northeast 545 627 41,000  Level Memphis Center
Thu 05:19:59 PM 35.3886 -85.6233 55° Northeast 548 631 41,000  Level Memphis Center
Thu 05:21:48 PM 35.5464 -85.3458 55° Northeast 544 626 41,000  Level Indianapolis Center
Thu 05:22:50 PM 35.6328 -85.1911 55° Northeast 548 631 41,000  Level Indianapolis Center
Thu 05:23:53 PM 35.7203 -85.0342 55° Northeast 549 632 41,000  Level Indianapolis Center
Thu 05:24:55 PM 35.8061 -84.8761 56° Northeast 549 632 41,000  Level Indianapolis Center
Thu 05:25:58 PM 35.9042 -84.7003 55° Northeast 555 639 41,000  Level Atlanta Center
Thu 05:26:58 PM 35.9906 -84.5469 55° Northeast 555 639 41,000  Level Atlanta Center
Thu 05:27:58 PM 36.0767 -84.3908 56° Northeast 555 639 41,000  Level Atlanta Center
Thu 05:28:58 PM 36.1625 -84.2342 56° Northeast 555 639 41,000  Level Atlanta Center
Thu 05:29:58 PM 36.2461 -84.0772 57° Northeast 555 639 41,000  Level Atlanta Center
Thu 05:30:58 PM 36.3314 -83.9203 56° Northeast 555 639 41,000  Level Atlanta Center
Thu 05:32:09 PM 36.4350 -83.7256 56° Northeast 550 633 41,000  Level Indianapolis Center
Thu 05:33:11 PM 36.5217 -83.5642 56° Northeast 547 629 41,000  Level Indianapolis Center
Thu 05:34:14 PM 36.6056 -83.4075 56° Northeast 545 627 41,000  Level Indianapolis Center
Thu 05:35:16 PM 36.6889 -83.2511 56° Northeast 545 627 41,000  Level Indianapolis Center
Thu 05:36:18 PM 36.7853 -83.0681 57° Northeast 545 627 41,000  Level Indianapolis Center
Thu 05:37:20 PM 36.8681 -82.9094 57° Northeast 544 626 41,000  Level Indianapolis Center
Thu 05:38:22 PM 36.9328 -82.7347 65° Northeast 551 634 41,000  Level Indianapolis Center
Thu 05:39:24 PM 37.0064 -82.5414 64° Northeast 554 638 41,000  Level Indianapolis Center
Thu 05:40:26 PM 37.0725 -82.3664 65° Northeast 555 639 41,000  Level Indianapolis Center
Thu 05:41:28 PM 37.1378 -82.1933 65° Northeast 554 638 41,000  Level Indianapolis Center
Thu 05:42:30 PM 37.2019 -82.0181 65° Northeast 554 638 41,000  Level Indianapolis Center
Thu 05:43:32 PM 37.2672 -81.8419 65° Northeast 554 638 41,000  Level Indianapolis Center
Thu 05:44:34 PM 37.3431 -81.6372 65° Northeast 554 638 41,000  Level Indianapolis Center
Thu 05:45:37 PM 37.3981 -81.4850 66° East 554 638 41,000  Level Indianapolis Center
Thu 05:46:39 PM 37.4731 -81.2739 66° East 553 636 41,000  Level Indianapolis Center
Thu 05:47:41 PM 37.5372 -81.0981 65° Northeast 553 636 41,000  Level Indianapolis Center
Thu 05:48:43 PM 37.6014 -80.9217 65° Northeast 553 636 41,000  Level Indianapolis Center
Thu 05:49:45 PM 37.6636 -80.7475 66° East 552 635 41,000  Level Indianapolis Center
Thu 05:50:47 PM 37.7269 -80.5717 65° Northeast 551 634 41,000  Level Indianapolis Center
Thu 05:51:45 PM 37.7889 -80.4033 65° Northeast 543 625 41,000  Level Washington Center
Thu 05:52:46 PM 37.8503 -80.2258 66° East 549 632 41,000 -248 Level Washington Center
Thu 05:53:46 PM 37.9200 -80.0328 65° Northeast 549 632 40,500 -1,008 Descending Washington Center
Thu 05:54:45 PM 37.9828 -79.8519 66° East 549 632 39,000 -1,450 Descending Washington Center
Thu 05:55:46 PM 38.0456 -79.6736 66° East 549 632 37,600 -984 Descending Washington Center
Thu 05:56:47 PM 38.1058 -79.4922 67° East 549 632 37,000 -295 Descending Washington Center
Thu 05:57:48 PM 38.1678 -79.3131 66° East 549 632 37,000  Level Washington Center
Thu 05:58:45 PM 38.2294 -79.1311 67° East 549 632 37,000  Level Washington Center
Thu 05:59:46 PM 38.2911 -78.9461 67° East 554 638 37,000  Level Washington Center
Thu 06:01:45 PM 38.4114 -78.5728 71° East 559 643 37,000  Level Washington Center
Thu 06:02:46 PM 38.4700 -78.3894 68° East 565 650 37,000  Level Washington Center
Thu 06:03:47 PM 38.5328 -78.2006 67° East 570 656 37,000  Level Washington Center
Thu 06:04:45 PM 38.5911 -78.0061 69° East 570 656 37,000 -407 Level Washington Center
Thu 06:05:45 PM 38.6261 -77.8133 77° East 565 650 36,200 -1,488 Descending Washington Center
Thu 06:06:46 PM 38.6567 -77.6147 79° East 560 644 34,000 -1,082 Descending Washington Center
Thu 06:07:47 PM 38.6911 -77.4083 78° East 571 657 34,000  Level Washington Center
Thu 06:08:48 PM 38.7253 -77.2042 78° East 582 670 34,000  Level Washington Center
Thu 06:09:46 PM 38.7592 -77.0000 78° East 582 670 34,000  Level Washington Center
Thu 06:10:47 PM 38.7947 -76.7903 78° East 582 670 34,000  Level Washington Center
Thu 06:11:46 PM 38.8258 -76.5828 79° East 582 670 34,000  Level Washington Center
Thu 06:12:46 PM 38.8586 -76.3753 78° East 588 677 34,000 -400 Level Washington Center
Thu 06:13:46 PM 38.8911 -76.1678 79° East 588 677 33,200 -1,934 Descending Washington Center
Thu 06:14:47 PM 38.9253 -75.9678 78° East 580 667 30,100 -2,118 Descending Washington Center
Thu 06:15:45 PM 38.9528 -75.7786 79° East 560 644 29,000 -555 Descending Washington Center
Thu 06:16:46 PM 38.9819 -75.5808 79° East 560 644 29,000  Level Washington Center
Thu 06:17:47 PM 39.0111 -75.3806 79° East 560 644 29,000  Level Washington Center
Thu 06:18:46 PM 39.0356 -75.1853 81° East 560 644 29,000  Level Washington Center
Thu 06:19:48 PM 39.0492 -74.9794 85° East 566 651 29,000 -504 Level Washington Center
Thu 06:20:45 PM 39.0625 -74.7764 85° East 566 651 28,000 -1,678 Descending Washington Center
Thu 06:21:46 PM 39.0986 -74.5833 76° East 553 636 25,700 -1,475 Descending Washington Center
Thu 06:22:47 PM 39.2039 -74.4694 40° Northeast 515 593 25,000 -1,079 Descending Washington Center
Thu 06:24:55 PM 39.4497 -74.2158 39° Northeast 508 585 22,300 -1,257 Descending Boston Center
Thu 06:25:58 PM 39.5522 -74.0939 43° Northeast 506 582 21,000 -639 Descending Boston Center
Thu 06:26:57 PM 39.6369 -73.9653 49° Northeast 493 567 21,000  Level New York Center
Thu 06:29:04 PM 39.8553 -73.6844 45° Northeast 495 570 21,000 -794 Level Boston Center
Thu 06:30:06 PM 39.9542 -73.5600 44° Northeast 494 568 18,500 -2,758 Descending Boston Center
Thu 06:31:08 PM 40.0492 -73.4400 44° Northeast 479 551 15,300 -2,952 Descending Boston Center
Thu 06:32:10 PM 40.1364 -73.3300 44° Northeast 441 507 12,400 -1,887 Descending Boston Center
Thu 06:33:12 PM 40.2094 -73.2347 45° Northeast 373 429 11,400 -1,355 Descending Boston Center
Thu 06:34:14 PM 40.2869 -73.1369 44° Northeast 325 374 9,600 -1,161 Descending Boston Center
Thu 06:35:16 PM 40.3464 -73.0600 45° Northeast 306 352 9,000 -290 Descending Boston Center
Thu 06:36:18 PM 40.4056 -72.9844 44° Northeast 299 344 9,000 -387 Level Boston Center
Thu 06:37:20 PM 40.4608 -72.9139 44° Northeast 280 322 8,200 -823 Descending Boston Center
Thu 06:38:22 PM 40.5100 -72.8497 45° Northeast 254 292 7,300 -629 Descending Boston Center
Thu 06:39:24 PM 40.5586 -72.7869 44° Northeast 250 288 6,900 -1,065 Descending Boston Center
Thu 06:40:26 PM 40.6372 -72.7283 29° Northeast 275 316 5,100 -1,403 Descending Boston Center
Thu 06:41:28 PM 40.7061 -72.6836 26° Northeast 275 316 4,000 -774 Descending Boston Center
Thu 06:42:30 PM 40.7714 -72.6408 26° Northeast 270 311 3,500 -726 Descending Boston Center
Thu 06:43:32 PM 40.8275 -72.5928 33° Northeast 254 292 2,500 -919 Descending Boston Center
Thu 06:44:34 PM 40.8808 -72.5578 26° Northeast 209 241 1,600 -919 Descending Boston Center
Thu 06:45:36 PM 40.8725 -72.5969 254° West 159 183 600 -677 Descending Boston Center
Thu 06:46:38 PM 40.8503 -72.6236 222° Southwest 141 162 200 -387 Descending Boston Center
Thu 06:48:00 PM 40.8437 -72.6318 246° West  Level Estimated
Thu 06:55:00 PM 40.8437 -72.6318 246° West  Level Estimated

Login

Don't have an account? Register now (free) for customized features, flight alerts, and more!